Norfolk, Virginia
Traffic Map
Current Weather Conditions
Norfolk, Virginia
Clear
Clear
33°
Feels Like: 39°
Wind Chill: 33° Ceiling: Unl
Heat Index: 39° Visibility: 10mi
Dew Point: 24° Wind: 6mph
Humidity: 61% Direction: 100° (E)
Pressure: 29.9in Gusts: 0mph
Raw Report DataKORF 272251Z AUTO 10005KT 10SM CLR 33/24 A2990 RMK AO2 SLP125 T03280244 TSNO
Traffic Incident Summary
Active as of:
Severity:
Category:
InformationThere was an issue retrieving the traffic information for this location. Please try a different location or try again shortly.
Advertisements
Track Severe Weather on mobile